HomeShort term forecast

Short term forecast

Graphical weather forecast for the next 48 hours for Montreal:
Short term forecast
This weather forecast is automatically refreshed every 3 hours.

Hourly Experimental Forecast for the next 48 hours

Overall summary: Snow (1–3 cm.) starting this afternoon, continuing until this evening.

 Date & Hour   Temp   Feel   Baro   Hum   Speed & Bearing   Wind Gust   Precip.%   Precip.   Visibility   Cloud cover   Conditions 
 24/03/2019 - 10:00  1.9°C  -3.0°C  1015.0 hPa  61%  21.6 km/h   41.3 km/h  3%  --  16.1km  27%  Partly Cloudy 
 24/03/2019 - 11:00  2.5°C  -2.2°C  1015.0 hPa  67%  20.9 km/h   38.0 km/h  5%  0.04 mm/h  16.1km  47%  Partly Cloudy 
 24/03/2019 - 12:00  2.5°C  -2.1°C  1015.2 hPa  73%  20.0 km/h   36.2 km/h  12%  0.02 mm/h  16.1km  74%  Mostly Cloudy 
 24/03/2019 - 13:00  2.8°C  -1.5°C  1015.3 hPa  74%  18.3 km/h   33.9 km/h  20%  0.06 mm/h  16.1km  81%  Mostly Cloudy 
 24/03/2019 - 14:00  2.8°C  -1.2°C  1015.5 hPa  78%  16.7 km/h   31.2 km/h  37%  0.12 mm/h  16.1km  88%  Mostly Cloudy 
 24/03/2019 - 15:00  2.0°C  -2.0°C  1015.8 hPa  83%  15.3 km/h   27.5 km/h  51%  0.27 mm/h  16.1km  95%  Light Snow 
 24/03/2019 - 16:00  1.6°C  -2.4°C  1016.0 hPa  84%  14.8 km/h   25.7 km/h  54%  0.52 mm/h  12.8km  87%  Snow 
 24/03/2019 - 17:00  1.5°C  -2.1°C  1016.3 hPa  82%  12.9 km/h   19.9 km/h  47%  0.60 mm/h  12.0km  89%  Snow 
 24/03/2019 - 18:00  0.9°C  -2.4°C  1016.5 hPa  81%  10.9 km/h   17.9 km/h  30%  0.37 mm/h  9.8km  82%  Light Snow 
 24/03/2019 - 19:00  0.5°C  -2.6°C  1016.8 hPa  78%  9.6 km/h   18.4 km/h  16%  0.32 mm/h  10.0km  75%  Possible Light Snow 
 24/03/2019 - 20:00  0.1°C  -2.9°C  1017.2 hPa  73%  9.1 km/h   17.6 km/h  9%  0.24 mm/h  11.0km  66%  Possible Light Snow 
 24/03/2019 - 21:00  -0.6°C  -3.8°C  1017.9 hPa  69%  9.4 km/h   18.4 km/h  6%  0.19 mm/h  14.2km  58%  Partly Cloudy 
 24/03/2019 - 22:00  -1.4°C  -5.0°C  1018.7 hPa  63%  10.2 km/h   18.9 km/h  2%  0.09 mm/h  16.1km  40%  Partly Cloudy 
 24/03/2019 - 23:00  -1.4°C  -5.2°C  1019.3 hPa  60%  11.0 km/h   19.6 km/h  1%  0.05 mm/h  16.1km  39%  Partly Cloudy 
 25/03/2019 - 00:00  -2.4°C  -6.5°C  1019.8 hPa  59%  11.3 km/h   20.1 km/h  1%  0.02 mm/h  16.1km  33%  Partly Cloudy 
 25/03/2019 - 01:00  -3.4°C  -7.8°C  1020.2 hPa  59%  11.5 km/h   20.2 km/h  1%  0.01 mm/h  16.1km  26%  Partly Cloudy 
 25/03/2019 - 02:00  -4.3°C  -8.9°C  1020.6 hPa  58%  11.6 km/h   20.0 km/h  1%  0.01 mm/h  16.1km  19%  Clear 
 25/03/2019 - 03:00  -5.0°C  -9.7°C  1020.9 hPa  58%  11.4 km/h   19.1 km/h  1%  0.01 mm/h  16.1km  12%  Clear 
 25/03/2019 - 04:00  -5.7°C  -10.4°C  1021.1 hPa  59%  11.1 km/h   17.8 km/h  0%  --  16.1km  5%  Clear 
 25/03/2019 - 05:00  -6.4°C  -11.4°C  1021.4 hPa  61%  11.3 km/h   17.5 km/h  0%  --  16.1km  0%  Clear 
 25/03/2019 - 06:00  -7.2°C  -12.5°C  1021.8 hPa  62%  12.0 km/h   19.0 km/h  0%  --  16.1km  0%  Clear 
 25/03/2019 - 07:00  -7.7°C  -13.4°C  1022.3 hPa  63%  13.2 km/h   21.5 km/h  0%  --  16.1km  0%  Clear 
 25/03/2019 - 08:00  -7.7°C  -13.8°C  1022.6 hPa  63%  14.7 km/h   24.0 km/h  0%  --  16.1km  0%  Clear 
 25/03/2019 - 09:00  -7.1°C  -13.4°C  1022.7 hPa  61%  16.4 km/h   26.1 km/h  0%  --  16.1km  0%  Clear 
 25/03/2019 - 10:00  -6.2°C  -12.7°C  1022.7 hPa  59%  18.4 km/h   28.1 km/h  0%  --  16.1km  0%  Clear 
 25/03/2019 - 11:00  -5.4°C  -12.1°C  1022.5 hPa  58%  20.5 km/h   30.1 km/h  0%  --  16.1km  0%  Clear 
 25/03/2019 - 12:00  -4.7°C  -11.5°C  1021.9 hPa  58%  22.4 km/h   32.1 km/h  6%  0.01 mm/h  16.1km  8%  Clear 
 25/03/2019 - 13:00  -3.8°C  -10.7°C  1021.2 hPa  58%  24.4 km/h   34.1 km/h  8%  0.01 mm/h  16.1km  18%  Clear 
 25/03/2019 - 14:00  -3.1°C  -9.9°C  1020.5 hPa  57%  25.9 km/h   36.1 km/h  12%  0.01 mm/h  16.1km  25%  Partly Cloudy 
 25/03/2019 - 15:00  -2.2°C  -9.0°C  1019.8 hPa  56%  27.1 km/h   38.3 km/h  0%  --  16.1km  36%  Partly Cloudy 
 25/03/2019 - 16:00  -1.5°C  -8.2°C  1019.2 hPa  54%  28.0 km/h   40.3 km/h  0%  --  16.1km  48%  Partly Cloudy 
 25/03/2019 - 17:00  -1.0°C  -7.5°C  1018.9 hPa  53%  27.5 km/h   41.3 km/h  0%  --  16.1km  55%  Partly Cloudy 
 25/03/2019 - 18:00  -1.1°C  -7.3°C  1019.3 hPa  54%  24.4 km/h   40.5 km/h  0%  --  16.1km  52%  Partly Cloudy 
 25/03/2019 - 19:00  -1.2°C  -6.8°C  1020.0 hPa  54%  20.2 km/h   38.7 km/h  0%  --  16.1km  45%  Partly Cloudy 
 25/03/2019 - 20:00  -1.5°C  -6.6°C  1020.8 hPa  56%  17.1 km/h   36.7 km/h  2%  0.01 mm/h  16.1km  40%  Partly Cloudy 
 25/03/2019 - 21:00  -1.8°C  -6.8°C  1021.6 hPa  57%  15.8 km/h   35.1 km/h  1%  0.01 mm/h  16.1km  43%  Partly Cloudy 
 25/03/2019 - 22:00  -2.2°C  -7.2°C  1022.3 hPa  59%  15.3 km/h   33.2 km/h  1%  0.01 mm/h  16.1km  45%  Partly Cloudy 
 25/03/2019 - 23:00  -2.8°C  -7.8°C  1023.0 hPa  61%  15.0 km/h   31.2 km/h  1%  0.02 mm/h  16.1km  45%  Partly Cloudy 
 26/03/2019 - 00:00  -3.8°C  -8.8°C  1023.8 hPa  61%  13.7 km/h   28.8 km/h  1%  0.02 mm/h  16.1km  41%  Partly Cloudy 
 26/03/2019 - 01:00  -4.5°C  -9.2°C  1024.5 hPa  59%  12.2 km/h   26.1 km/h  1%  0.02 mm/h  16.1km  33%  Partly Cloudy 
 26/03/2019 - 02:00  -5.0°C  -9.5°C  1025.1 hPa  57%  11.0 km/h   23.5 km/h  1%  0.01 mm/h  16.1km  25%  Partly Cloudy 
 26/03/2019 - 03:00  -5.5°C  -9.9°C  1025.6 hPa  57%  10.1 km/h   21.3 km/h  1%  0.01 mm/h  16.1km  16%  Clear 
 26/03/2019 - 04:00  -6.0°C  -10.2°C  1026.2 hPa  56%  9.4 km/h   19.4 km/h  0%  --  16.1km  7%  Clear 
 26/03/2019 - 05:00  -6.5°C  -10.8°C  1026.8 hPa  56%  9.1 km/h   17.7 km/h  0%  --  16.1km  0%  Clear 
 26/03/2019 - 06:00  -6.9°C  -11.3°C  1027.5 hPa  56%  9.1 km/h   15.8 km/h  0%  --  16.1km  0%  Clear 
 26/03/2019 - 07:00  -7.1°C  -11.6°C  1028.4 hPa  56%  9.5 km/h   14.1 km/h  0%  --  16.1km  0%  Clear 
 26/03/2019 - 08:00  -6.9°C  -11.7°C  1029.0 hPa  56%  10.5 km/h   13.6 km/h  1%  0.01 mm/h  16.1km  0%  Clear 
 26/03/2019 - 09:00  -6.2°C  -11.3°C  1029.4 hPa  54%  11.9 km/h   15.1 km/h  0%  --  16.1km  0%  Clear 
Test

 

Past weather and reports

Past weatherFind in this section the past weather conditions, weather archive, graphics, reports and statistics.

Current conditions

Current weather condition for MontrealAll you need to know about the current weather conditions for Montreal. Weather data is updated every 10 minutes.

Weather forecast

Current Montreal weatherSince 2004, celinium.com website has provided accurate weather forecast for Montreal's island.